Time;durP1;ratioP1;P1;durP2;ratioP2;P2;SDS_P1;SDS_P2;PMS_P1;PMS_P2;Temp;Humidity;BMP_temperature;BMP_pressure;BME280_temperature;BME280_humidity;BME280_pressure;Samples;Min_cycle;Max_cycle;Signal;HPM_P1;HPM_P2
2021/07/15 00:01:18;;;;;;;1.70;0.95;;;17.00;99.90;;;;;;5072764;28;20389;-78
2021/07/15 00:03:43;;;;;;;0.80;0.47;;;17.10;99.90;;;;;;5072534;28;20063;-76
2021/07/15 00:06:10;;;;;;;0.77;0.40;;;17.10;99.90;;;;;;5072416;28;20063;-76
2021/07/15 00:08:35;;;;;;;0.38;0.30;;;17.10;99.90;;;;;;5072356;28;20532;-77
2021/07/15 00:11:06;;;;;;;1.58;0.40;;;17.00;99.90;;;;;;5071276;28;20027;-77
2021/07/15 00:13:32;;;;;;;;;;;16.90;99.90;;;;;;5073244;28;20021;-76
2021/07/15 00:16:01;;;;;;;0.30;0.30;;;17.00;99.90;;;;;;5073429;28;19904;-77
2021/07/15 00:18:34;;;;;;;0.50;0.20;;;17.00;99.90;;;;;;5072210;28;20046;-76
2021/07/15 00:21:02;;;;;;;0.32;0.20;;;16.90;99.90;;;;;;5070878;28;20032;-77
2021/07/15 00:23:28;;;;;;;0.45;0.22;;;16.80;99.90;;;;;;5072273;28;20486;-77
2021/07/15 00:25:54;;;;;;;0.55;0.30;;;16.80;99.90;;;;;;5070736;28;20039;-77
2021/07/15 00:28:20;;;;;;;0.30;0.30;;;16.70;99.90;;;;;;5072056;28;20056;-76
2021/07/15 00:30:46;;;;;;;0.35;0.30;;;16.70;99.90;;;;;;5071124;28;20107;-76
2021/07/15 00:33:12;;;;;;;0.20;0.20;;;16.70;99.90;;;;;;5071912;28;20025;-76
2021/07/15 00:35:38;;;;;;;0.47;0.35;;;16.50;99.90;;;;;;5071637;28;20020;-76
2021/07/15 00:38:05;;;;;;;0.20;0.20;;;16.50;99.90;;;;;;5071976;28;20031;-75
2021/07/15 00:40:31;;;;;;;0.20;0.20;;;16.40;99.90;;;;;;5070744;28;20481;-76
2021/07/15 00:42:57;;;;;;;1.33;0.30;;;16.40;99.90;;;;;;5053930;28;20029;-76
2021/07/15 00:45:23;;;;;;;0.63;0.22;;;16.50;99.90;;;;;;5070431;28;20094;-76
2021/07/15 00:47:49;;;;;;;0.82;0.30;;;16.50;99.90;;;;;;5071907;28;20059;-77
2021/07/15 00:50:18;;;;;;;0.35;0.20;;;16.50;99.90;;;;;;5071590;28;20037;-76
2021/07/15 00:52:44;;;;;;;0.70;0.30;;;16.40;99.90;;;;;;5070512;28;20025;-77
2021/07/15 00:55:14;;;;;;;0.30;0.30;;;16.50;99.90;;;;;;5070330;28;20036;-77
2021/07/15 00:57:41;;;;;;;0.30;0.30;;;16.50;99.90;;;;;;5071923;28;20150;-76
2021/07/15 01:00:09;;;;;;;1.98;0.30;;;16.50;99.90;;;;;;5071732;28;20029;-77
2021/07/15 01:02:35;;;;;;;1.77;0.20;;;16.50;99.90;;;;;;5071710;28;20085;-76
2021/07/15 01:05:11;;;;;;;1.20;0.40;;;16.50;99.90;;;;;;5072040;28;20488;-76
2021/07/15 01:07:37;;;;;;;0.52;0.20;;;16.50;99.90;;;;;;5071717;28;20039;-78
2021/07/15 01:10:05;;;;;;;0.30;0.20;;;16.50;99.90;;;;;;5053584;28;20016;-75
2021/07/15 01:13:07;;;;;;;0.68;0.50;;;16.50;99.90;;;;;;5071610;28;20052;-77
2021/07/15 01:15:49;;;;;;;0.88;0.40;;;16.50;99.90;;;;;;5025496;28;20028;-77
2021/07/15 01:18:31;;;;;;;1.75;0.20;;;16.50;99.90;;;;;;5070402;28;20559;-77
2021/07/15 01:21:24;;;;;;;0.93;0.20;;;16.40;99.90;;;;;;5070095;28;20067;-76
2021/07/15 01:24:26;;;;;;;0.98;0.35;;;16.40;99.90;;;;;;5071639;28;20032;-76
2021/07/15 01:26:57;;;;;;;0.32;0.20;;;16.50;99.90;;;;;;5053722;28;20029;-76
2021/07/15 01:29:46;;;;;;;0.20;0.20;;;16.50;99.90;;;;;;5071414;28;20024;-76
2021/07/15 01:32:15;;;;;;;0.20;0.10;;;16.50;99.90;;;;;;5053539;28;20078;-76
2021/07/15 01:34:42;;;;;;;0.57;0.20;;;16.50;99.90;;;;;;5070571;28;20497;-77
2021/07/15 01:37:08;;;;;;;1.48;0.28;;;16.40;99.90;;;;;;5053439;28;20028;-75
2021/07/15 01:39:36;;;;;;;0.50;0.20;;;16.40;99.90;;;;;;5070224;28;20378;-76
2021/07/15 01:42:09;;;;;;;0.20;0.10;;;16.40;99.90;;;;;;5071808;28;20056;-76
2021/07/15 01:44:35;;;;;;;0.30;0.30;;;16.40;99.90;;;;;;5057261;28;20477;-76
2021/07/15 01:47:02;;;;;;;0.30;0.20;;;16.40;99.90;;;;;;5075181;28;20469;-77
2021/07/15 01:49:28;;;;;;;0.20;0.10;;;16.30;99.90;;;;;;5075224;28;20037;-76
2021/07/15 01:51:54;;;;;;;0.35;0.20;;;16.30;99.90;;;;;;5075205;28;20025;-77
2021/07/15 01:54:21;;;;;;;1.98;0.10;;;16.30;99.90;;;;;;5075118;28;20029;-78
2021/07/15 01:56:47;;;;;;;1.10;0.30;;;16.30;99.90;;;;;;5074919;28;20149;-77
2021/07/15 01:59:18;;;;;;;0.13;0.13;;;16.30;99.90;;;;;;5075036;28;20039;-77
2021/07/15 02:01:47;;;;;;;0.20;0.20;;;16.30;99.90;;;;;;5075065;28;20040;-77
2021/07/15 02:04:14;;;;;;;0.10;0.10;;;16.20;99.90;;;;;;5073786;28;20070;-76
2021/07/15 02:06:45;;;;;;;0.10;0.10;;;16.30;99.90;;;;;;5074876;28;20013;-76
2021/07/15 02:09:12;;;;;;;0.20;0.20;;;16.20;99.90;;;;;;5073572;28;20016;-77
2021/07/15 02:11:40;;;;;;;1.13;0.20;;;16.20;99.90;;;;;;5074825;28;20027;-76
2021/07/15 02:14:09;;;;;;;1.70;0.30;;;16.20;99.90;;;;;;5074761;28;20363;-76
2021/07/15 02:16:38;;;;;;;0.40;0.20;;;16.20;99.90;;;;;;5074569;28;20101;-76
2021/07/15 02:19:05;;;;;;;2.25;0.25;;;16.20;99.90;;;;;;5074463;28;20012;-76
2021/07/15 02:21:34;;;;;;;2.10;0.40;;;16.20;99.90;;;;;;5056741;28;20021;-76
2021/07/15 02:24:02;;;;;;;0.15;0.15;;;16.20;99.90;;;;;;5075513;28;20028;-77
2021/07/15 02:26:29;;;;;;;0.50;0.32;;;16.20;99.90;;;;;;5056738;28;20024;-76
2021/07/15 02:28:55;;;;;;;0.20;0.20;;;16.10;99.90;;;;;;5074258;28;20077;-81
2021/07/15 02:31:32;;;;;;;0.28;0.28;;;16.10;99.90;;;;;;5073089;28;20066;-77
2021/07/15 02:34:01;;;;;;;0.47;0.20;;;16.10;99.90;;;;;;5074312;28;20025;-76
2021/07/15 02:36:29;;;;;;;0.20;0.20;;;16.10;99.90;;;;;;5074641;28;20070;-76
2021/07/15 02:38:58;;;;;;;0.68;0.30;;;16.20;99.90;;;;;;5072896;28;20085;-77
2021/07/15 02:41:24;;;;;;;0.10;0.10;;;16.20;99.90;;;;;;5074228;28;20031;-74
2021/07/15 02:43:49;;;;;;;0.10;0.10;;;16.20;99.90;;;;;;5074147;28;20024;-77
2021/07/15 02:46:15;;;;;;;2.75;0.35;;;16.20;99.90;;;;;;5074012;28;20482;-76
2021/07/15 02:48:41;;;;;;;0.20;0.20;;;16.20;99.90;;;;;;5073896;28;20104;-77
2021/07/15 02:51:07;;;;;;;0.50;0.20;;;16.20;99.90;;;;;;5055882;28;20486;-76
2021/07/15 02:53:33;;;;;;;0.13;0.13;;;16.20;99.90;;;;;;5071566;28;20487;-77
2021/07/15 02:56:06;;;;;;;0.10;0.10;;;16.30;99.90;;;;;;5074017;28;20023;-76
2021/07/15 02:58:36;;;;;;;0.10;0.10;;;16.20;99.90;;;;;;5073876;28;20032;-77
2021/07/15 03:01:08;;;;;;;0.10;0.10;;;16.20;99.90;;;;;;5055729;28;20508;-76
2021/07/15 03:04:00;;;;;;;0.20;0.10;;;16.30;99.90;;;;;;5074203;28;20040;-77
2021/07/15 03:06:36;;;;;;;0.17;0.10;;;16.20;99.90;;;;;;5073734;28;20060;-76
2021/07/15 03:09:11;;;;;;;0.10;0.10;;;16.20;99.90;;;;;;5073695;28;20508;-77
2021/07/15 03:11:44;;;;;;;0.22;0.22;;;16.20;99.90;;;;;;5073672;28;20103;-76
2021/07/15 03:14:10;;;;;;;3.10;0.15;;;16.20;99.90;;;;;;5073806;28;20059;-76
2021/07/15 03:16:39;;;;;;;0.30;0.20;;;16.20;99.90;;;;;;5055829;28;20044;-76
2021/07/15 03:19:07;;;;;;;0.28;0.20;;;16.10;99.90;;;;;;5073478;28;20436;-77
2021/07/15 03:21:37;;;;;;;0.47;0.20;;;16.20;99.90;;;;;;5072260;28;20035;-77
2021/07/15 03:24:04;;;;;;;0.20;0.20;;;16.30;99.90;;;;;;5056022;28;20031;-77
2021/07/15 03:26:31;;;;;;;1.80;0.15;;;16.30;99.90;;;;;;5074994;28;20615;-76
2021/07/15 03:28:58;;;;;;;0.35;0.10;;;16.30;99.90;;;;;;5072499;28;20154;-77
2021/07/15 03:31:24;;;;;;;0.20;0.20;;;16.20;99.90;;;;;;5071912;28;20023;-76
2021/07/15 03:33:51;;;;;;;0.60;0.28;;;16.20;99.90;;;;;;5055169;28;20020;-77
2021/07/15 03:36:18;;;;;;;0.98;0.43;;;16.20;99.90;;;;;;5073204;28;20024;-77
2021/07/15 03:38:46;;;;;;;2.05;0.40;;;16.20;99.90;;;;;;5071838;28;20552;-77
2021/07/15 03:41:13;;;;;;;0.68;0.25;;;16.20;99.90;;;;;;5055563;28;20390;-77
2021/07/15 03:43:42;;;;;;;0.30;0.20;;;16.20;99.90;;;;;;5073085;28;20118;-76
2021/07/15 03:46:07;;;;;;;0.15;0.15;;;16.20;99.90;;;;;;5072920;28;20046;-77
2021/07/15 03:48:34;;;;;;;0.20;0.20;;;16.30;99.90;;;;;;5072712;28;20032;-76
2021/07/15 03:51:03;;;;;;;0.75;0.20;;;16.20;99.90;;;;;;5098274;22;20485;-72
2021/07/15 03:53:30;;;;;;;1.75;0.20;;;16.20;99.90;;;;;;5073257;28;20024;-73
2021/07/15 03:55:57;;;;;;;0.30;0.20;;;16.20;99.90;;;;;;5073012;28;20043;-73
2021/07/15 03:58:24;;;;;;;1.50;0.32;;;16.10;99.90;;;;;;5055126;28;20107;-73
2021/07/15 04:00:55;;;;;;;1.10;0.30;;;16.10;99.90;;;;;;5073132;28;20500;-72
2021/07/15 04:03:23;;;;;;;3.00;0.28;;;16.20;99.90;;;;;;5072932;28;20040;-73
2021/07/15 04:05:51;;;;;;;3.47;0.38;;;16.10;99.90;;;;;;5072664;28;20393;-71
2021/07/15 04:08:19;;;;;;;3.70;0.38;;;16.10;99.90;;;;;;5072766;28;20036;-73
2021/07/15 04:10:46;;;;;;;2.45;0.40;;;16.00;99.90;;;;;;5072982;28;20028;-71
2021/07/15 04:13:13;;;;;;;1.65;0.20;;;16.10;99.90;;;;;;5054866;28;20028;-73
2021/07/15 04:15:51;;;;;;;0.17;0.15;;;16.10;99.90;;;;;;5072570;28;20017;-74
2021/07/15 04:18:24;;;;;;;0.40;0.30;;;16.10;99.90;;;;;;5072842;28;20032;-72
2021/07/15 04:20:50;;;;;;;0.68;0.30;;;16.20;99.90;;;;;;5078655;28;20025;-73
2021/07/15 04:23:18;;;;;;;3.92;0.22;;;16.20;99.90;;;;;;5057119;28;20063;-73
2021/07/15 04:25:46;;;;;;;1.25;0.28;;;16.20;99.90;;;;;;5072702;28;20103;-73
2021/07/15 04:28:14;;;;;;;3.42;0.30;;;16.30;99.90;;;;;;5071243;28;20029;-73
2021/07/15 04:30:39;;;;;;;1.10;0.40;;;16.40;99.90;;;;;;5072448;28;20021;-74
2021/07/15 04:33:09;;;;;;;0.40;0.20;;;16.40;99.90;;;;;;5072456;28;20428;-73
2021/07/15 04:35:36;;;;;;;0.60;0.25;;;16.50;99.90;;;;;;5072262;28;20020;-73
2021/07/15 04:38:04;;;;;;;1.23;0.20;;;16.50;99.90;;;;;;5071081;28;20020;-73
2021/07/15 04:40:31;;;;;;;3.40;0.73;;;16.50;99.90;;;;;;5072045;28;20028;-73
2021/07/15 04:43:01;;;;;;;4.07;0.85;;;16.60;99.90;;;;;;5071065;28;20025;-74
2021/07/15 04:45:28;;;;;;;5.15;0.50;;;16.60;99.90;;;;;;5072396;28;20478;-73
2021/07/15 04:47:55;;;;;;;3.10;0.22;;;16.60;99.90;;;;;;5071225;28;20458;-73
2021/07/15 04:50:25;;;;;;;3.47;0.40;;;16.60;99.90;;;;;;5073727;28;20700;-74
2021/07/15 04:52:57;;;;;;;1.05;0.30;;;16.50;99.90;;;;;;5071247;28;20111;-74
2021/07/15 04:55:24;;;;;;;1.77;0.35;;;16.60;99.90;;;;;;5072201;28;20024;-74
2021/07/15 04:57:51;;;;;;;0.50;0.30;;;16.70;99.90;;;;;;5071858;28;20559;-74
2021/07/15 05:00:18;;;;;;;3.20;0.43;;;16.70;99.90;;;;;;5072321;28;20393;-73
2021/07/15 05:02:43;;;;;;;1.63;0.30;;;16.70;99.90;;;;;;5072010;28;20024;-72
2021/07/15 05:05:11;;;;;;;3.40;0.30;;;16.80;99.90;;;;;;5070644;28;20566;-72
2021/07/15 05:07:38;;;;;;;1.60;0.40;;;16.80;99.90;;;;;;5072420;28;20048;-73
2021/07/15 05:10:09;;;;;;;0.52;0.20;;;16.70;99.90;;;;;;5071929;28;20024;-73
2021/07/15 05:12:35;;;;;;;7.20;0.30;;;16.80;99.90;;;;;;5071842;28;20107;-73
2021/07/15 05:15:11;;;;;;;0.35;0.30;;;16.80;99.90;;;;;;5071902;28;20130;-73
2021/07/15 05:17:37;;;;;;;1.58;0.30;;;16.70;99.90;;;;;;5079108;28;20029;-73
2021/07/15 05:20:07;;;;;;;4.47;0.20;;;16.70;99.90;;;;;;5080077;28;20059;-73
2021/07/15 05:22:33;;;;;;;3.53;0.63;;;16.70;99.90;;;;;;5083197;28;20050;-72
2021/07/15 05:24:58;;;;;;;1.90;0.50;;;16.70;99.90;;;;;;5082531;28;20477;-73
2021/07/15 05:27:24;;;;;;;1.83;0.68;;;16.80;99.90;;;;;;5082087;28;20038;-72
2021/07/15 05:29:49;;;;;;;0.88;0.47;;;16.70;99.90;;;;;;5080897;28;20028;-72
2021/07/15 05:32:15;;;;;;;5.18;1.13;;;16.80;99.90;;;;;;5063265;28;20077;-72
2021/07/15 05:34:41;;;;;;;6.30;2.60;;;16.70;99.90;;;;;;5081308;28;20056;-75
2021/07/15 05:37:06;;;;;;;2.22;0.20;;;16.80;99.90;;;;;;5079742;28;20119;-73
2021/07/15 05:39:32;;;;;;;1.70;0.30;;;16.70;99.90;;;;;;5079568;28;20154;-73
2021/07/15 05:41:58;;;;;;;1.70;0.50;;;16.70;99.90;;;;;;5078570;28;20021;-73
2021/07/15 05:44:24;;;;;;;0.32;0.30;;;16.90;99.90;;;;;;5078426;28;20474;-73
2021/07/15 05:46:50;;;;;;;0.47;0.30;;;16.90;99.90;;;;;;5078041;28;20044;-73
2021/07/15 05:49:15;;;;;;;0.63;0.25;;;16.90;99.90;;;;;;5078265;28;20039;-73
2021/07/15 05:51:46;;;;;;;0.28;0.20;;;16.90;99.90;;;;;;5079380;28;20416;-73
2021/07/15 05:54:13;;;;;;;0.93;0.30;;;16.90;99.90;;;;;;5078296;28;20111;-73
2021/07/15 05:56:38;;;;;;;0.10;0.10;;;16.90;99.90;;;;;;5078285;28;20078;-74
2021/07/15 05:59:04;;;;;;;0.85;0.32;;;16.90;99.90;;;;;;5078049;28;20028;-73
2021/07/15 06:01:29;;;;;;;0.60;0.15;;;17.10;99.90;;;;;;5078377;28;20032;-73
2021/07/15 06:03:55;;;;;;;2.63;0.60;;;17.10;99.90;;;;;;5078183;28;20020;-72
2021/07/15 06:06:20;;;;;;;2.00;0.40;;;17.20;99.90;;;;;;5078175;28;20165;-73
2021/07/15 06:08:47;;;;;;;0.88;0.30;;;17.30;99.90;;;;;;5077936;28;20073;-74
2021/07/15 06:11:13;;;;;;;2.13;0.30;;;17.40;99.90;;;;;;5060262;28;20020;-73
2021/07/15 06:13:38;;;;;;;2.92;0.45;;;17.50;99.90;;;;;;5093336;28;20144;-71
2021/07/15 06:16:04;;;;;;;1.23;0.20;;;17.50;99.90;;;;;;5094058;28;20021;-72
2021/07/15 06:18:30;;;;;;;0.20;0.20;;;17.50;99.90;;;;;;5094410;28;20092;-73
2021/07/15 06:20:55;;;;;;;0.50;0.30;;;17.50;99.90;;;;;;5086530;28;20035;-74
2021/07/15 06:23:21;;;;;;;0.57;0.28;;;17.60;99.90;;;;;;5078982;28;20032;-72
2021/07/15 06:25:47;;;;;;;0.85;0.20;;;17.80;99.90;;;;;;5061168;28;20024;-72
2021/07/15 06:28:12;;;;;;;2.63;0.40;;;17.90;99.90;;;;;;5076926;28;20075;-74
2021/07/15 06:30:38;;;;;;;3.17;0.60;;;17.90;99.90;;;;;;5075302;28;20095;-72
2021/07/15 06:33:03;;;;;;;0.20;0.20;;;17.90;99.90;;;;;;5057523;28;20021;-73
2021/07/15 06:35:29;;;;;;;2.00;0.30;;;17.90;99.90;;;;;;5075466;28;20028;-73
2021/07/15 06:37:55;;;;;;;4.53;0.30;;;18.00;99.90;;;;;;5073874;28;20028;-73
2021/07/15 06:40:23;;;;;;;0.35;0.20;;;18.10;99.90;;;;;;5074998;28;20093;-72
2021/07/15 06:42:49;;;;;;;0.90;0.20;;;18.30;99.90;;;;;;5074677;28;20371;-73
2021/07/15 06:45:15;;;;;;;0.43;0.38;;;18.40;99.90;;;;;;5074566;28;20486;-72
2021/07/15 06:47:42;;;;;;;1.58;0.20;;;18.50;99.90;;;;;;5075203;28;20059;-72
2021/07/15 06:50:10;;;;;;;1.02;0.50;;;18.60;99.90;;;;;;5077251;28;20074;-73
2021/07/15 06:52:36;;;;;;;2.85;0.40;;;18.60;99.90;;;;;;5079593;28;20024;-73
2021/07/15 06:55:03;;;;;;;1.20;0.60;;;18.50;99.90;;;;;;5073531;28;20025;-73
2021/07/15 06:57:29;;;;;;;1.75;0.40;;;18.40;99.90;;;;;;5074603;28;20039;-73
2021/07/15 06:59:55;;;;;;;3.03;0.60;;;18.60;99.90;;;;;;5056565;28;20386;-73
2021/07/15 07:02:20;;;;;;;0.50;0.20;;;18.50;99.90;;;;;;5074416;28;20029;-73
2021/07/15 07:04:46;;;;;;;2.95;0.93;;;18.30;99.90;;;;;;5073900;28;20031;-73
2021/07/15 07:07:12;;;;;;;1.98;1.08;;;18.10;99.90;;;;;;5073767;28;20555;-74
2021/07/15 07:09:37;;;;;;;1.42;0.32;;;18.10;99.90;;;;;;5058392;28;20443;-74
2021/07/15 07:12:03;;;;;;;1.88;0.40;;;18.10;99.90;;;;;;5076378;28;20401;-73
2021/07/15 07:14:29;;;;;;;1.27;1.10;;;18.10;99.90;;;;;;5076946;28;20021;-72
2021/07/15 07:16:55;;;;;;;0.77;0.30;;;18.10;99.90;;;;;;5077553;28;20055;-73
2021/07/15 07:19:20;;;;;;;0.80;0.50;;;18.20;99.90;;;;;;5076477;28;20020;-73
2021/07/15 07:21:46;;;;;;;1.23;0.28;;;18.30;99.90;;;;;;5078489;28;20440;-73
2021/07/15 07:24:11;;;;;;;2.50;1.10;;;18.60;99.90;;;;;;5078712;28;20029;-72
2021/07/15 07:26:37;;;;;;;3.25;0.50;;;18.70;99.90;;;;;;5081568;28;20028;-72
2021/07/15 07:29:05;;;;;;;1.27;0.30;;;18.90;99.90;;;;;;5077887;28;20041;-72
2021/07/15 07:31:31;;;;;;;4.47;0.20;;;19.00;99.90;;;;;;5061830;28;20465;-73
2021/07/15 07:33:56;;;;;;;0.68;0.40;;;19.00;99.90;;;;;;5084379;28;20052;-72
2021/07/15 07:36:22;;;;;;;1.25;0.20;;;18.80;99.90;;;;;;5081100;28;20024;-73
2021/07/15 07:38:47;;;;;;;0.30;0.20;;;18.60;99.90;;;;;;5082716;28;20021;-73
2021/07/15 07:41:13;;;;;;;0.20;0.10;;;18.70;99.90;;;;;;5080270;28;20473;-71
2021/07/15 07:43:39;;;;;;;0.82;0.30;;;18.80;99.90;;;;;;5079125;28;20051;-73
2021/07/15 07:46:04;;;;;;;0.38;0.38;;;19.00;99.90;;;;;;5073455;28;20036;-72
2021/07/15 07:48:30;;;;;;;1.17;0.20;;;19.10;99.90;;;;;;5073557;28;20028;-73
2021/07/15 07:51:00;;;;;;;1.73;0.50;;;19.00;99.90;;;;;;5073207;28;20028;-73
2021/07/15 07:53:27;;;;;;;0.98;0.13;;;19.00;99.90;;;;;;5087607;28;20021;-72
2021/07/15 07:55:53;;;;;;;0.60;0.30;;;19.00;99.90;;;;;;5083977;28;20025;-72
2021/07/15 07:58:20;;;;;;;0.22;0.20;;;18.90;99.90;;;;;;5087279;28;20436;-73
2021/07/15 08:00:45;;;;;;;0.82;0.30;;;19.10;99.90;;;;;;5087426;28;20068;-73
2021/07/15 08:03:11;;;;;;;1.60;0.13;;;19.00;99.90;;;;;;5088035;28;20029;-73
2021/07/15 08:05:39;;;;;;;2.05;0.20;;;18.80;99.90;;;;;;5089189;28;20633;-74
2021/07/15 08:08:05;;;;;;;0.73;0.20;;;18.70;99.90;;;;;;5070816;28;20103;-73
2021/07/15 08:10:31;;;;;;;1.17;0.70;;;18.80;99.90;;;;;;5081315;28;20024;-73
2021/07/15 08:12:57;;;;;;;0.30;0.30;;;19.00;99.90;;;;;;5072841;28;20095;-74
2021/07/15 08:15:22;;;;;;;1.45;0.50;;;19.10;99.90;;;;;;5071297;28;20043;-73
2021/07/15 08:17:48;;;;;;;3.45;0.30;;;19.20;99.90;;;;;;5072694;28;20032;-73
2021/07/15 08:20:14;;;;;;;1.65;0.20;;;19.50;99.90;;;;;;5072708;28;20051;-75
2021/07/15 08:22:41;;;;;;;2.28;0.20;;;19.50;99.90;;;;;;5072633;28;20020;-72
2021/07/15 08:25:07;;;;;;;1.63;0.40;;;19.50;99.90;;;;;;5072912;28;20025;-72
2021/07/15 08:27:33;;;;;;;0.65;0.50;;;19.60;99.90;;;;;;5072758;28;20029;-73
2021/07/15 08:29:59;;;;;;;1.80;0.20;;;20.50;99.90;;;;;;5072658;28;20474;-73
2021/07/15 08:32:25;;;;;;;2.80;0.90;;;21.00;99.90;;;;;;5072581;28;20096;-74
2021/07/15 08:34:50;;;;;;;0.63;0.20;;;20.40;99.90;;;;;;5055240;28;20542;-73
2021/07/15 08:37:16;;;;;;;3.03;0.35;;;20.10;99.90;;;;;;5072939;28;20032;-73
2021/07/15 08:39:42;;;;;;;2.72;0.40;;;19.80;99.90;;;;;;5073095;28;20020;-74
2021/07/15 08:42:08;;;;;;;1.65;0.88;;;19.60;99.90;;;;;;5073554;28;20078;-74
2021/07/15 08:44:36;;;;;;;5.38;1.02;;;19.70;99.90;;;;;;5072593;28;20029;-73
2021/07/15 08:47:03;;;;;;;1.50;0.40;;;20.10;99.90;;;;;;5072681;28;20489;-73
2021/07/15 08:49:29;;;;;;;0.68;0.30;;;20.40;99.90;;;;;;5072636;28;20046;-73
2021/07/15 08:51:55;;;;;;;0.68;0.22;;;20.00;99.90;;;;;;5072363;28;20103;-73
2021/07/15 08:54:28;;;;;;;3.50;0.68;;;20.60;99.90;;;;;;5072406;28;20486;-73
2021/07/15 08:56:54;;;;;;;3.60;0.75;;;20.30;99.90;;;;;;5072780;28;20031;-73
2021/07/15 08:59:21;;;;;;;1.10;0.63;;;20.80;99.90;;;;;;5072475;28;20020;-73
2021/07/15 09:01:49;;;;;;;1.50;0.20;;;21.10;99.90;;;;;;5073976;28;20028;-73
2021/07/15 09:04:15;;;;;;;2.38;0.50;;;21.40;99.90;;;;;;5055672;28;20031;-73
2021/07/15 09:06:42;;;;;;;0.75;0.38;;;21.20;99.90;;;;;;5072136;28;20033;-73
2021/07/15 09:09:09;;;;;;;3.17;0.40;;;21.50;99.90;;;;;;5073446;28;20028;-73
2021/07/15 09:11:35;;;;;;;1.27;0.40;;;21.10;99.90;;;;;;5076760;28;20024;-73
2021/07/15 09:14:01;;;;;;;5.97;0.45;;;21.10;99.90;;;;;;5061124;28;20032;-73
2021/07/15 09:16:26;;;;;;;1.95;0.40;;;20.90;99.90;;;;;;5076050;28;20028;-73
2021/07/15 09:19:07;;;;;;;1.80;0.30;;;20.70;99.90;;;;;;5073590;28;20098;-73
2021/07/15 09:21:35;;;;;;;2.08;0.73;;;20.60;99.90;;;;;;5059282;28;20020;-73
2021/07/15 09:24:03;;;;;;;0.80;0.55;;;20.60;99.90;;;;;;5077795;28;20079;-73
2021/07/15 09:26:30;;;;;;;2.25;0.40;;;20.70;99.90;;;;;;5076964;28;20032;-73
2021/07/15 09:29:16;;;;;;;1.40;0.45;;;21.00;99.90;;;;;;5076583;28;20033;-72
2021/07/15 09:31:57;;;;;;;0.30;0.30;;;21.00;99.90;;;;;;5081399;28;20028;-72
2021/07/15 09:34:24;;;;;;;1.40;0.30;;;21.40;99.90;;;;;;5080743;28;20456;-73
2021/07/15 09:36:51;;;;;;;0.20;0.20;;;21.20;99.90;;;;;;5059684;28;20029;-72
2021/07/15 09:39:28;;;;;;;3.40;0.80;;;21.60;99.90;;;;;;5076149;28;20171;-72
2021/07/15 09:42:14;;;;;;;16.45;0.68;;;21.60;99.90;;;;;;5077403;28;20539;-73
2021/07/15 09:44:43;;;;;;;1.90;0.40;;;21.40;99.90;;;;;;5076496;28;20054;-74
2021/07/15 09:47:30;;;;;;;2.90;0.40;;;21.40;99.90;;;;;;5086373;28;20425;-73
2021/07/15 09:49:55;;;;;;;1.95;0.75;;;20.90;99.90;;;;;;5101507;22;20072;-76
2021/07/15 09:52:22;;;;;;;1.45;0.50;;;20.90;99.90;;;;;;5071902;28;20091;-75
2021/07/15 09:54:47;;;;;;;0.15;0.15;;;21.20;99.90;;;;;;5053910;28;20059;-76
2021/07/15 09:57:25;;;;;;;0.82;0.22;;;21.60;99.90;;;;;;5071354;28;20059;-75
2021/07/15 09:59:51;;;;;;;0.43;0.25;;;21.20;99.90;;;;;;5071212;28;20060;-75
2021/07/15 10:02:28;;;;;;;2.67;0.30;;;20.70;99.90;;;;;;5071741;28;20059;-76
2021/07/15 10:04:53;;;;;;;2.08;0.22;;;20.80;99.90;;;;;;5074993;28;20482;-77
2021/07/15 10:07:24;;;;;;;2.30;0.32;;;21.30;99.90;;;;;;5074835;28;20035;-75
2021/07/15 10:09:49;;;;;;;0.65;0.40;;;21.10;99.90;;;;;;5074886;28;20096;-75
2021/07/15 10:12:25;;;;;;;0.20;0.20;;;21.50;99.90;;;;;;5074734;28;20559;-75
2021/07/15 10:14:51;;;;;;;1.10;0.22;;;21.20;99.90;;;;;;5074577;28;20505;-76
2021/07/15 10:17:36;;;;;;;1.00;0.38;;;21.00;99.90;;;;;;5056634;28;20036;-76
2021/07/15 10:20:18;;;;;;;0.55;0.40;;;21.20;99.90;;;;;;5074635;28;20029;-76
2021/07/15 10:22:53;;;;;;;0.25;0.25;;;20.90;99.90;;;;;;5056898;28;20096;-75
2021/07/15 10:25:19;;;;;;;0.30;0.22;;;20.80;99.90;;;;;;5073284;28;20091;-76
2021/07/15 10:27:45;;;;;;;1.20;0.30;;;20.80;99.90;;;;;;5073241;28;20020;-76
2021/07/15 10:30:13;;;;;;;1.27;0.40;;;20.40;99.90;;;;;;5074603;28;20040;-76
2021/07/15 10:32:39;;;;;;;1.77;0.70;;;20.30;99.90;;;;;;5074424;28;20029;-75
2021/07/15 10:35:08;;;;;;;1.13;0.50;;;19.90;99.90;;;;;;5074093;28;20389;-75
2021/07/15 10:37:42;;;;;;;1.23;0.40;;;20.20;99.90;;;;;;5074912;28;20021;-76
2021/07/15 10:40:11;;;;;;;0.93;0.47;;;19.80;99.90;;;;;;5075221;28;20056;-75
2021/07/15 10:42:38;;;;;;;0.63;0.32;;;19.80;99.90;;;;;;5075768;28;20044;-76
2021/07/15 10:45:09;;;;;;;1.33;0.47;;;19.70;99.90;;;;;;5073097;28;20020;-76
2021/07/15 10:47:36;;;;;;;1.08;0.40;;;19.80;99.90;;;;;;5074339;28;20098;-75
2021/07/15 10:50:04;;;;;;;1.85;0.30;;;19.60;99.90;;;;;;5074071;28;20082;-75
2021/07/15 10:52:31;;;;;;;0.60;0.25;;;19.50;99.90;;;;;;5074184;28;20037;-75
2021/07/15 10:54:58;;;;;;;0.30;0.25;;;19.60;99.90;;;;;;5074110;28;20025;-76
2021/07/15 10:57:24;;;;;;;0.47;0.40;;;19.90;99.90;;;;;;5074276;28;20032;-75
2021/07/15 10:59:50;;;;;;;0.63;0.30;;;20.20;99.90;;;;;;5095578;28;20017;-75
2021/07/15 11:02:25;;;;;;;1.52;0.43;;;20.50;99.90;;;;;;5081823;28;20047;-75
2021/07/15 11:04:55;;;;;;;1.08;0.40;;;21.00;99.90;;;;;;5074641;28;20508;-75
2021/07/15 11:07:28;;;;;;;1.35;0.60;;;21.30;99.90;;;;;;5075331;28;20067;-75
2021/07/15 11:10:17;;;;;;;1.05;0.30;;;21.60;99.90;;;;;;5075003;28;20099;-76
2021/07/15 11:12:58;;;;;;;1.95;0.30;;;21.60;99.90;;;;;;5074073;28;20032;-76
2021/07/15 11:15:43;;;;;;;1.85;0.30;;;21.60;99.90;;;;;;5073286;28;20542;-75
2021/07/15 11:18:09;;;;;;;1.35;0.50;;;21.10;99.90;;;;;;5073832;28;20028;-77
2021/07/15 11:20:35;;;;;;;0.70;0.38;;;21.10;99.90;;;;;;5073457;28;20032;-76
2021/07/15 11:23:07;;;;;;;0.57;0.40;;;21.20;99.90;;;;;;5072676;28;20077;-75
2021/07/15 11:25:41;;;;;;;0.77;0.30;;;21.30;99.90;;;;;;5073464;28;20489;-76
2021/07/15 11:28:10;;;;;;;1.85;0.30;;;21.00;99.90;;;;;;5073663;28;20124;-76
2021/07/15 11:30:35;;;;;;;0.30;0.30;;;20.90;99.90;;;;;;5073726;28;20158;-76
2021/07/15 11:33:16;;;;;;;0.50;0.50;;;20.90;99.90;;;;;;5073545;28;20044;-77
2021/07/15 11:35:49;;;;;;;0.20;0.20;;;21.00;99.90;;;;;;5055536;28;20035;-76
2021/07/15 11:38:24;;;;;;;0.20;0.10;;;20.80;99.90;;;;;;5055770;28;20021;-77
2021/07/15 11:40:50;;;;;;;0.65;0.30;;;20.80;99.90;;;;;;5073153;28;20035;-76
2021/07/15 11:43:26;;;;;;;0.47;0.30;;;21.10;99.90;;;;;;5073292;28;20025;-75
2021/07/15 11:46:11;;;;;;;0.22;0.22;;;21.10;99.90;;;;;;5073170;28;20091;-76
2021/07/15 11:48:46;;;;;;;2.75;0.30;;;21.20;99.90;;;;;;5073289;28;20024;-78
2021/07/15 11:51:25;;;;;;;0.20;0.20;;;21.80;99.90;;;;;;5055132;28;20520;-76
2021/07/15 11:54:12;;;;;;;0.43;0.43;;;21.70;99.90;;;;;;5073339;28;20071;-76
2021/07/15 11:56:38;;;;;;;5.47;0.50;;;21.40;99.90;;;;;;5073025;28;20025;-79
2021/07/15 11:59:04;;;;;;;0.40;0.32;;;21.10;99.90;;;;;;5073402;28;20393;-77
2021/07/15 12:01:36;;;;;;;2.33;0.65;;;21.00;99.90;;;;;;5055215;28;20025;-76
2021/07/15 12:04:06;;;;;;;0.38;0.28;;;20.80;99.90;;;;;;5072816;28;20020;-76
2021/07/15 12:06:38;;;;;;;0.52;0.22;;;20.80;99.90;;;;;;5072799;28;20078;-75
2021/07/15 12:09:09;;;;;;;1.98;1.02;;;20.50;99.90;;;;;;5072813;28;20028;-75
2021/07/15 12:11:40;;;;;;;0.50;0.30;;;20.50;99.90;;;;;;5072790;28;20032;-76
2021/07/15 12:14:06;;;;;;;1.85;0.50;;;20.40;99.90;;;;;;5072571;28;20037;-76
2021/07/15 12:16:36;;;;;;;1.13;0.32;;;20.30;99.90;;;;;;5072603;28;20031;-75
2021/07/15 12:19:04;;;;;;;0.93;0.27;;;20.40;99.90;;;;;;5054963;28;20494;-76
2021/07/15 12:21:30;;;;;;;0.57;0.30;;;20.60;99.90;;;;;;5072341;28;20021;-76
2021/07/15 12:23:58;;;;;;;1.95;0.20;;;20.60;99.90;;;;;;5072519;28;20032;-76
2021/07/15 12:26:23;;;;;;;0.25;0.17;;;20.90;99.90;;;;;;5071968;28;20043;-76
2021/07/15 12:28:49;;;;;;;1.13;0.22;;;20.90;99.90;;;;;;5072229;28;20111;-75
2021/07/15 12:31:18;;;;;;;0.15;0.15;;;21.00;99.90;;;;;;5072156;28;20070;-75
2021/07/15 12:33:53;;;;;;;2.35;0.20;;;21.10;99.90;;;;;;5071206;28;20433;-76
2021/07/15 12:36:25;;;;;;;0.25;0.25;;;21.10;99.90;;;;;;5072086;28;20044;-76
2021/07/15 12:39:02;;;;;;;0.40;0.40;;;21.50;99.90;;;;;;5072442;28;20028;-76
2021/07/15 12:41:30;;;;;;;0.50;0.50;;;21.20;99.90;;;;;;5054927;28;20031;-76
2021/07/15 12:44:00;;;;;;;0.40;0.40;;;21.50;99.90;;;;;;5078333;28;20013;-74
2021/07/15 12:46:31;;;;;;;0.82;0.40;;;22.20;99.90;;;;;;5073078;28;20485;-77
2021/07/15 12:48:59;;;;;;;0.32;0.32;;;22.40;99.90;;;;;;5073131;28;20099;-75
2021/07/15 12:51:29;;;;;;;0.45;0.32;;;22.60;99.90;;;;;;5071769;28;20115;-75
2021/07/15 12:53:54;;;;;;;0.43;0.30;;;22.20;99.90;;;;;;5072400;28;20027;-75
2021/07/15 12:56:24;;;;;;;0.68;0.40;;;22.40;99.90;;;;;;5070709;28;20020;-76